Time;durP1;ratioP1;P1;durP2;ratioP2;P2;SDS_P1;SDS_P2;PMS_P1;PMS_P2;Temp;Humidity;BMP_temperature;BMP_pressure;BME280_temperature;BME280_humidity;BME280_pressure;Samples;Min_cycle;Max_cycle;Signal;HPM_P1;HPM_P2
2023/06/30 00:00:36;;;;;;;4.40;3.43;;;;;;;;;;6185618;28;20192;-61
2023/06/30 00:03:37;;;;;;;4.60;3.10;;;;;;;;;;6188340;28;20201;-61
2023/06/30 00:06:39;;;;;;;4.47;3.13;;;;;;;;;;6186566;28;20250;-61
2023/06/30 00:09:40;;;;;;;3.67;3.07;;;;;;;;;;6194187;28;20202;-61
2023/06/30 00:12:41;;;;;;;3.30;3.00;;;;;;;;;;6212803;28;20214;-61
2023/06/30 00:15:42;;;;;;;3.40;3.10;;;;;;;;;;6183776;28;20235;-61
2023/06/30 00:18:43;;;;;;;3.73;3.43;;;;;;;;;;6185451;28;20188;-61
2023/06/30 00:21:45;;;;;;;3.70;3.40;;;;;;;;;;6187833;28;20196;-61
2023/06/30 00:24:47;;;;;;;4.80;3.57;;;;;;;;;;6188483;28;20228;-61
2023/06/30 00:27:48;;;;;;;6.50;3.60;;;;;;;;;;6210899;28;20207;-61
2023/06/30 00:30:49;;;;;;;3.37;3.07;;;;;;;;;;6180292;28;20196;-61
2023/06/30 00:33:50;;;;;;;3.67;3.13;;;;;;;;;;6182475;28;20191;-61
2023/06/30 00:36:51;;;;;;;3.83;3.20;;;;;;;;;;6174219;28;20192;-61
2023/06/30 00:39:52;;;;;;;3.43;3.13;;;;;;;;;;6162179;28;20292;-61
2023/06/30 00:42:53;;;;;;;3.97;3.53;;;;;;;;;;6184570;28;20190;-61
2023/06/30 00:45:54;;;;;;;3.60;3.30;;;;;;;;;;6186221;28;20290;-61
2023/06/30 00:48:55;;;;;;;3.50;3.20;;;;;;;;;;6198107;28;20218;-61
2023/06/30 00:51:56;;;;;;;3.97;3.57;;;;;;;;;;6196323;28;20221;-61
2023/06/30 00:54:57;;;;;;;7.10;3.43;;;;;;;;;;6178819;28;20197;-61
2023/06/30 00:57:58;;;;;;;3.73;3.37;;;;;;;;;;6176320;28;20267;-61
2023/06/30 01:01:14;;;;;;;4.90;3.73;;;;;;;;;;6170818;28;20227;-61
2023/06/30 01:04:15;;;;;;;5.47;4.00;;;;;;;;;;6195812;28;20180;-61
2023/06/30 01:07:23;;;;;;;4.23;3.80;;;;;;;;;;6196123;28;20195;-61
2023/06/30 01:10:25;;;;;;;6.77;3.63;;;;;;;;;;6185311;28;20189;-61
2023/06/30 01:13:26;;;;;;;4.50;4.10;;;;;;;;;;6185127;28;20235;-61
2023/06/30 01:16:28;;;;;;;4.37;3.60;;;;;;;;;;6190199;28;20200;-61
2023/06/30 01:19:38;;;;;;;5.00;3.67;;;;;;;;;;6208296;28;20184;-61
2023/06/30 01:22:43;;;;;;;4.17;3.33;;;;;;;;;;6194330;28;20233;-60
2023/06/30 01:25:45;;;;;;;3.70;3.40;;;;;;;;;;6179443;28;20193;-60
2023/06/30 01:28:47;;;;;;;4.80;3.70;;;;;;;;;;6193060;28;20196;-61
2023/06/30 01:31:48;;;;;;;4.20;3.70;;;;;;;;;;6191820;28;20328;-61
2023/06/30 01:34:49;;;;;;;3.53;3.23;;;;;;;;;;6174287;28;20197;-60
2023/06/30 01:37:50;;;;;;;4.10;3.70;;;;;;;;;;6171946;28;20193;-61
2023/06/30 01:40:51;;;;;;;4.10;3.70;;;;;;;;;;6190198;28;20231;-61
2023/06/30 01:43:53;;;;;;;4.23;3.83;;;;;;;;;;6187813;28;20250;-61
2023/06/30 01:46:54;;;;;;;4.67;4.27;;;;;;;;;;6184142;28;20279;-61
2023/06/30 01:49:55;;;;;;;5.03;3.70;;;;;;;;;;6187997;28;20197;-61
2023/06/30 01:52:59;;;;;;;4.10;3.60;;;;;;;;;;6179494;28;20220;-61
2023/06/30 01:56:01;;;;;;;5.57;4.17;;;;;;;;;;6193674;28;20185;-60
2023/06/30 01:59:02;;;;;;;4.37;3.67;;;;;;;;;;6191382;28;20219;-60
2023/06/30 02:02:03;;;;;;;4.20;3.80;;;;;;;;;;6179355;28;20283;-61
2023/06/30 02:05:04;;;;;;;4.67;3.80;;;;;;;;;;6172550;28;20214;-61
2023/06/30 02:08:05;;;;;;;5.33;4.20;;;;;;;;;;6190081;28;20207;-61
2023/06/30 02:11:06;;;;;;;3.90;3.60;;;;;;;;;;6184466;28;20223;-61
2023/06/30 02:14:07;;;;;;;4.33;3.83;;;;;;;;;;6172432;28;20239;-61
2023/06/30 02:17:13;;;;;;;3.90;3.50;;;;;;;;;;6210339;28;20198;-61
2023/06/30 02:20:14;;;;;;;4.47;3.73;;;;;;;;;;6198955;28;20240;-61
2023/06/30 02:23:15;;;;;;;4.80;3.87;;;;;;;;;;6183906;28;20242;-61
2023/06/30 02:26:16;;;;;;;4.50;4.10;;;;;;;;;;6199234;28;20219;-61
2023/06/30 02:29:17;;;;;;;3.83;3.53;;;;;;;;;;6191862;28;20196;-61
2023/06/30 02:32:18;;;;;;;3.80;3.50;;;;;;;;;;6179069;28;20208;-61
2023/06/30 02:35:19;;;;;;;4.70;4.30;;;;;;;;;;6183035;28;20192;-61
2023/06/30 02:38:20;;;;;;;5.30;4.80;;;;;;;;;;6186369;28;20235;-61
2023/06/30 02:41:21;;;;;;;5.40;4.10;;;;;;;;;;6166096;28;20296;-60
2023/06/30 02:44:22;;;;;;;5.47;3.97;;;;;;;;;;6178657;28;20226;-61
2023/06/30 02:47:23;;;;;;;4.77;3.93;;;;;;;;;;6174066;28;20204;-61
2023/06/30 02:50:29;;;;;;;4.27;3.97;;;;;;;;;;6179014;28;20201;-61
2023/06/30 02:53:30;;;;;;;4.73;4.10;;;;;;;;;;6189908;28;20256;-61
2023/06/30 02:56:31;;;;;;;4.27;3.87;;;;;;;;;;6181036;28;20250;-60
2023/06/30 02:59:32;;;;;;;4.83;3.97;;;;;;;;;;6166470;28;20196;-61
2023/06/30 03:02:33;;;;;;;4.50;4.03;;;;;;;;;;6191582;28;20208;-61
2023/06/30 03:05:34;;;;;;;4.23;3.93;;;;;;;;;;6176944;28;20196;-61
2023/06/30 03:08:36;;;;;;;4.60;4.07;;;;;;;;;;6190067;28;20213;-60
2023/06/30 03:11:37;;;;;;;4.27;3.97;;;;;;;;;;6194287;28;20223;-60
2023/06/30 03:14:38;;;;;;;4.80;4.40;;;;;;;;;;6173292;28;20270;-61
2023/06/30 03:17:39;;;;;;;4.30;3.90;;;;;;;;;;6179426;28;20193;-61
2023/06/30 03:20:41;;;;;;;5.30;4.33;;;;;;;;;;6185075;28;20279;-61
2023/06/30 03:23:43;;;;;;;5.27;4.47;;;;;;;;;;6179739;28;20292;-60
2023/06/30 03:26:43;;;;;;;4.30;3.90;;;;;;;;;;6184149;28;20246;-61
2023/06/30 03:29:44;;;;;;;5.23;4.77;;;;;;;;;;6184910;28;20191;-61
2023/06/30 03:32:46;;;;;;;4.77;4.00;;;;;;;;;;6196139;28;20307;-61
2023/06/30 03:35:47;;;;;;;4.80;4.40;;;;;;;;;;6191235;28;20192;-61
2023/06/30 03:38:48;;;;;;;4.67;4.27;;;;;;;;;;6186953;28;20370;-61
2023/06/30 03:41:49;;;;;;;5.93;4.50;;;;;;;;;;6184825;28;20250;-61
2023/06/30 03:44:50;;;;;;;4.83;4.27;;;;;;;;;;6199424;28;20278;-61
2023/06/30 03:47:51;;;;;;;4.77;4.37;;;;;;;;;;6183053;28;20238;-61
2023/06/30 03:50:55;;;;;;;4.90;3.97;;;;;;;;;;6183736;28;20300;-61
2023/06/30 03:53:56;;;;;;;9.00;4.53;;;;;;;;;;6179714;28;20202;-61
2023/06/30 03:56:57;;;;;;;4.70;4.33;;;;;;;;;;6179753;28;20207;-61
2023/06/30 03:59:58;;;;;;;5.20;4.73;;;;;;;;;;6182418;28;20195;-60
2023/06/30 04:02:59;;;;;;;5.97;4.80;;;;;;;;;;6169365;28;20199;-61
2023/06/30 04:06:00;;;;;;;4.73;4.33;;;;;;;;;;6176197;28;20228;-62
2023/06/30 04:09:01;;;;;;;5.43;4.63;;;;;;;;;;6174528;28;20191;-61
2023/06/30 04:12:02;;;;;;;5.10;4.60;;;;;;;;;;6167114;28;20336;-61
2023/06/30 04:15:07;;;;;;;4.63;4.23;;;;;;;;;;6169844;28;20238;-61
2023/06/30 04:18:08;;;;;;;5.30;4.60;;;;;;;;;;6195001;28;20211;-61
2023/06/30 04:21:09;;;;;;;6.23;4.60;;;;;;;;;;6182663;28;20199;-61
2023/06/30 04:24:10;;;;;;;6.13;4.70;;;;;;;;;;6190480;28;20279;-61
2023/06/30 04:27:11;;;;;;;5.70;5.20;;;;;;;;;;6165344;28;20255;-62
2023/06/30 04:30:13;;;;;;;5.50;4.60;;;;;;;;;;6173570;28;20193;-62
2023/06/30 04:33:14;;;;;;;6.23;5.17;;;;;;;;;;6169927;28;20224;-61
2023/06/30 04:36:17;;;;;;;6.03;4.93;;;;;;;;;;6167115;28;20191;-61
2023/06/30 04:39:19;;;;;;;5.30;4.63;;;;;;;;;;6185728;28;20207;-62
2023/06/30 04:42:20;;;;;;;5.50;5.00;;;;;;;;;;6174007;28;20207;-62
2023/06/30 04:45:21;;;;;;;5.83;5.10;;;;;;;;;;6177404;28;20265;-61
2023/06/30 04:48:22;;;;;;;5.37;4.87;;;;;;;;;;6166109;28;20205;-61
2023/06/30 04:51:24;;;;;;;5.37;4.60;;;;;;;;;;6163844;28;20213;-61
2023/06/30 04:54:25;;;;;;;4.97;4.57;;;;;;;;;;6192706;28;20192;-61
2023/06/30 04:57:26;;;;;;;6.43;5.40;;;;;;;;;;6181322;28;20192;-62
2023/06/30 05:00:27;;;;;;;5.20;4.70;;;;;;;;;;6187357;28;20203;-61
2023/06/30 05:03:28;;;;;;;6.60;5.20;;;;;;;;;;6184218;28;20207;-62
2023/06/30 05:06:29;;;;;;;5.50;4.90;;;;;;;;;;6184001;28;20192;-61
2023/06/30 05:09:30;;;;;;;4.83;4.43;;;;;;;;;;6174430;28;20218;-62
2023/06/30 05:12:31;;;;;;;5.30;4.80;;;;;;;;;;6171221;28;20258;-62
2023/06/30 05:15:33;;;;;;;5.50;5.00;;;;;;;;;;6183965;28;20238;-61
2023/06/30 05:18:34;;;;;;;5.63;5.13;;;;;;;;;;6187279;28;20216;-61
2023/06/30 05:21:35;;;;;;;6.20;5.00;;;;;;;;;;6176592;28;20227;-61
2023/06/30 05:24:36;;;;;;;18.57;8.33;;;;;;;;;;6168158;28;20196;-62
2023/06/30 05:27:37;;;;;;;22.40;9.50;;;;;;;;;;6193252;28;20185;-61
2023/06/30 05:30:39;;;;;;;20.67;9.23;;;;;;;;;;6181416;28;20195;-62
2023/06/30 05:33:40;;;;;;;12.17;7.30;;;;;;;;;;6177385;28;20224;-61
2023/06/30 05:36:43;;;;;;;10.40;6.23;;;;;;;;;;6171970;28;20196;-61
2023/06/30 05:39:44;;;;;;;8.13;5.63;;;;;;;;;;6184737;28;20287;-62
2023/06/30 05:42:45;;;;;;;8.13;5.00;;;;;;;;;;6167898;28;20264;-62
2023/06/30 05:45:46;;;;;;;6.83;5.17;;;;;;;;;;6166245;28;20192;-61
2023/06/30 05:48:47;;;;;;;8.10;5.20;;;;;;;;;;6176349;28;20231;-61
2023/06/30 05:51:48;;;;;;;6.83;5.33;;;;;;;;;;6170085;28;20223;-61
2023/06/30 05:54:49;;;;;;;6.07;5.17;;;;;;;;;;6196581;28;20194;-61
2023/06/30 05:57:51;;;;;;;6.53;4.70;;;;;;;;;;6182173;28;20200;-61
2023/06/30 06:00:52;;;;;;;5.37;4.87;;;;;;;;;;6187463;28;20192;-62
2023/06/30 06:03:53;;;;;;;5.57;4.90;;;;;;;;;;6186368;28;20207;-61
2023/06/30 06:06:55;;;;;;;6.63;5.37;;;;;;;;;;6170447;28;20203;-61
2023/06/30 06:09:56;;;;;;;7.23;5.40;;;;;;;;;;6187579;28;20344;-62
2023/06/30 06:12:57;;;;;;;7.17;4.90;;;;;;;;;;6183858;28;20251;-61
2023/06/30 06:15:58;;;;;;;7.17;5.47;;;;;;;;;;6176075;28;20524;-61
2023/06/30 06:18:59;;;;;;;7.30;4.90;;;;;;;;;;6199229;28;20228;-61
2023/06/30 06:22:00;;;;;;;6.00;5.10;;;;;;;;;;6177439;28;20201;-62
2023/06/30 06:25:01;;;;;;;6.43;4.57;;;;;;;;;;6187046;28;20192;-61
2023/06/30 06:28:03;;;;;;;7.27;4.83;;;;;;;;;;6177336;28;20204;-62
2023/06/30 06:31:04;;;;;;;7.43;5.30;;;;;;;;;;6186050;28;20196;-62
2023/06/30 06:34:05;;;;;;;6.17;5.30;;;;;;;;;;6181948;28;20203;-62
2023/06/30 06:37:06;;;;;;;7.03;5.17;;;;;;;;;;6176476;28;20200;-61
2023/06/30 06:40:07;;;;;;;7.97;5.73;;;;;;;;;;6173061;28;20201;-62
2023/06/30 06:43:08;;;;;;;5.53;5.03;;;;;;;;;;6173718;28;20196;-62
2023/06/30 06:46:09;;;;;;;7.03;5.23;;;;;;;;;;6175543;28;20230;-61
2023/06/30 06:49:10;;;;;;;5.27;4.63;;;;;;;;;;6182233;28;20278;-61
2023/06/30 06:52:11;;;;;;;7.33;5.00;;;;;;;;;;6165424;28;20220;-62
2023/06/30 06:55:12;;;;;;;5.97;4.50;;;;;;;;;;6165826;28;20189;-62
2023/06/30 06:58:14;;;;;;;5.90;5.30;;;;;;;;;;6161593;28;20228;-62
2023/06/30 07:01:15;;;;;;;5.27;4.77;;;;;;;;;;6166047;28;20228;-62
2023/06/30 07:04:16;;;;;;;5.53;4.93;;;;;;;;;;6179408;28;20263;-62
2023/06/30 07:07:17;;;;;;;5.73;4.90;;;;;;;;;;6183692;28;20197;-62
2023/06/30 07:10:18;;;;;;;4.93;4.53;;;;;;;;;;6182219;28;20203;-62
2023/06/30 07:13:20;;;;;;;6.90;4.97;;;;;;;;;;6175307;28;20288;-61
2023/06/30 07:16:21;;;;;;;6.40;4.33;;;;;;;;;;6193050;28;20192;-62
2023/06/30 07:19:22;;;;;;;5.03;4.53;;;;;;;;;;6189987;28;20211;-62
2023/06/30 07:22:23;;;;;;;5.07;4.60;;;;;;;;;;6176821;28;20200;-62
2023/06/30 07:25:27;;;;;;;4.77;4.37;;;;;;;;;;6179586;28;20187;-61
2023/06/30 07:28:28;;;;;;;6.53;4.57;;;;;;;;;;6198999;28;20242;-61
2023/06/30 07:31:31;;;;;;;4.40;4.00;;;;;;;;;;6180491;28;20302;-62
2023/06/30 07:34:33;;;;;;;4.70;4.20;;;;;;;;;;6178808;28;20263;-62
2023/06/30 07:37:34;;;;;;;5.37;4.83;;;;;;;;;;6179816;28;20220;-62
2023/06/30 07:40:35;;;;;;;5.30;4.17;;;;;;;;;;6183793;28;20191;-62
2023/06/30 07:43:36;;;;;;;5.43;4.40;;;;;;;;;;6180041;28;20198;-61
2023/06/30 07:46:38;;;;;;;4.43;3.80;;;;;;;;;;6175053;28;20202;-62
2023/06/30 07:49:39;;;;;;;5.53;4.00;;;;;;;;;;6194604;28;20284;-63
2023/06/30 07:52:42;;;;;;;5.23;4.30;;;;;;;;;;6187125;28;20211;-61
2023/06/30 07:55:43;;;;;;;5.40;4.40;;;;;;;;;;6173942;28;20211;-63
2023/06/30 07:58:44;;;;;;;4.37;4.00;;;;;;;;;;6174664;28;20191;-62
2023/06/30 08:01:45;;;;;;;5.27;4.17;;;;;;;;;;6168182;28;20200;-62
2023/06/30 08:04:46;;;;;;;5.23;4.03;;;;;;;;;;6169391;28;20195;-62
2023/06/30 08:07:47;;;;;;;5.03;4.40;;;;;;;;;;6176884;28;20200;-62
2023/06/30 08:10:49;;;;;;;5.77;4.23;;;;;;;;;;6170238;28;20209;-62
2023/06/30 08:13:50;;;;;;;6.47;4.80;;;;;;;;;;6178054;28;20310;-63
2023/06/30 08:16:51;;;;;;;6.03;4.37;;;;;;;;;;6185867;28;20190;-63
2023/06/30 08:19:52;;;;;;;8.10;5.10;;;;;;;;;;6187543;28;20193;-63
2023/06/30 08:22:53;;;;;;;7.17;4.60;;;;;;;;;;6183963;28;20198;-64
2023/06/30 08:25:55;;;;;;;6.40;4.93;;;;;;;;;;6199832;28;20191;-63
2023/06/30 08:28:56;;;;;;;5.60;4.87;;;;;;;;;;6180822;28;20287;-63
2023/06/30 08:31:57;;;;;;;5.90;4.57;;;;;;;;;;6181945;28;20211;-63
2023/06/30 08:34:58;;;;;;;7.37;5.53;;;;;;;;;;6186871;28;20195;-62
2023/06/30 08:37:59;;;;;;;7.10;4.53;;;;;;;;;;6189717;28;20199;-62
2023/06/30 08:41:00;;;;;;;5.43;4.53;;;;;;;;;;6174639;28;20220;-62
2023/06/30 08:44:01;;;;;;;4.83;4.30;;;;;;;;;;6177405;28;20200;-62
2023/06/30 08:47:03;;;;;;;6.10;4.93;;;;;;;;;;6195778;28;20246;-62
2023/06/30 08:50:04;;;;;;;4.47;4.07;;;;;;;;;;6179530;28;20196;-62
2023/06/30 08:53:05;;;;;;;5.43;3.90;;;;;;;;;;6169123;28;20300;-62
2023/06/30 08:56:08;;;;;;;7.87;4.67;;;;;;;;;;6175211;28;20201;-62
2023/06/30 08:59:09;;;;;;;8.60;4.70;;;;;;;;;;6194973;28;20196;-62
2023/06/30 09:02:11;;;;;;;6.63;4.47;;;;;;;;;;6183005;28;20256;-62
2023/06/30 09:05:13;;;;;;;8.73;4.20;;;;;;;;;;6188022;28;20200;-61
2023/06/30 09:08:21;;;;;;;4.77;4.37;;;;;;;;;;6159297;28;20291;-62
2023/06/30 09:11:23;;;;;;;4.57;4.13;;;;;;;;;;6184743;28;20212;-62
2023/06/30 09:14:26;;;;;;;6.87;4.07;;;;;;;;;;6189090;28;20322;-61
2023/06/30 09:17:28;;;;;;;4.83;4.30;;;;;;;;;;6199673;28;20475;-62
2023/06/30 09:20:29;;;;;;;5.57;3.73;;;;;;;;;;6186356;28;20200;-62
2023/06/30 09:23:31;;;;;;;5.77;4.27;;;;;;;;;;6159713;28;20207;-62
2023/06/30 09:26:34;;;;;;;4.27;3.87;;;;;;;;;;6161283;28;20188;-62
2023/06/30 09:29:35;;;;;;;5.00;4.50;;;;;;;;;;6166880;28;20201;-62
2023/06/30 09:32:36;;;;;;;4.80;4.30;;;;;;;;;;6183916;28;20219;-62
2023/06/30 09:35:38;;;;;;;4.67;4.10;;;;;;;;;;6161711;28;20196;-62
2023/06/30 09:38:40;;;;;;;4.50;4.20;;;;;;;;;;6174207;28;20200;-62
2023/06/30 09:41:44;;;;;;;4.83;4.43;;;;;;;;;;6185278;28;20189;-62
2023/06/30 09:44:46;;;;;;;5.47;4.43;;;;;;;;;;6181857;28;20196;-62
2023/06/30 09:47:53;;;;;;;6.77;4.40;;;;;;;;;;6166096;28;20193;-62
2023/06/30 09:50:54;;;;;;;4.97;4.57;;;;;;;;;;6177015;28;20224;-62
2023/06/30 09:53:56;;;;;;;5.10;4.60;;;;;;;;;;6177064;28;20223;-62
2023/06/30 09:56:58;;;;;;;4.87;4.20;;;;;;;;;;6175561;28;20295;-62
2023/06/30 10:00:02;;;;;;;4.43;4.03;;;;;;;;;;6185506;28;20283;-62
2023/06/30 10:03:04;;;;;;;4.77;4.30;;;;;;;;;;6194466;28;20203;-62
2023/06/30 10:06:05;;;;;;;6.00;4.77;;;;;;;;;;6193278;28;20231;-63
2023/06/30 10:09:07;;;;;;;8.70;5.00;;;;;;;;;;6184636;28;20219;-63
2023/06/30 10:12:09;;;;;;;11.23;7.30;;;;;;;;;;6177628;28;20226;-62
2023/06/30 10:15:11;;;;;;;9.70;6.43;;;;;;;;;;6172870;28;20239;-62
2023/06/30 10:18:15;;;;;;;7.90;6.20;;;;;;;;;;6204064;28;20420;-63
2023/06/30 10:21:16;;;;;;;4.50;4.10;;;;;;;;;;6200007;28;20220;-63
2023/06/30 10:24:19;;;;;;;5.43;4.93;;;;;;;;;;6179659;28;20231;-63
2023/06/30 10:27:21;;;;;;;5.73;5.10;;;;;;;;;;6180525;28;20291;-63
2023/06/30 10:30:22;;;;;;;4.50;4.13;;;;;;;;;;6162934;28;20218;-63
2023/06/30 10:33:23;;;;;;;5.70;4.10;;;;;;;;;;6180630;28;20251;-63
2023/06/30 10:36:25;;;;;;;4.90;4.50;;;;;;;;;;6174990;28;20189;-63
2023/06/30 10:39:27;;;;;;;5.30;4.60;;;;;;;;;;6184475;28;20188;-62
2023/06/30 10:42:28;;;;;;;6.17;4.77;;;;;;;;;;6170073;28;20201;-63
2023/06/30 10:45:30;;;;;;;4.93;4.43;;;;;;;;;;6172056;28;20207;-63
2023/06/30 10:48:31;;;;;;;5.70;4.47;;;;;;;;;;6193347;28;20189;-63
2023/06/30 10:51:36;;;;;;;5.67;4.47;;;;;;;;;;6183762;28;20231;-63
2023/06/30 10:54:40;;;;;;;15.60;10.03;;;;;;;;;;6191852;28;20188;-62
2023/06/30 10:57:41;;;;;;;17.67;9.70;;;;;;;;;;6195800;28;20196;-63
2023/06/30 11:01:01;;;;;;;10.80;7.47;;;;;;;;;;6202584;28;20192;-62
2023/06/30 11:04:11;;;;;;;9.93;6.83;;;;;;;;;;6197201;28;20193;-63
2023/06/30 11:07:23;;;;;;;5.13;4.63;;;;;;;;;;6189023;28;20188;-63
2023/06/30 11:10:34;;;;;;;4.83;4.43;;;;;;;;;;6197158;28;20274;-63
2023/06/30 11:13:38;;;;;;;4.70;4.30;;;;;;;;;;6183271;28;20215;-64
2023/06/30 11:16:58;;;;;;;4.00;3.60;;;;;;;;;;6182393;28;20250;-62
2023/06/30 11:20:02;;;;;;;6.13;4.73;;;;;;;;;;6201088;28;20212;-63
2023/06/30 11:23:04;;;;;;;5.90;4.23;;;;;;;;;;6184051;28;20188;-62
2023/06/30 11:26:13;;;;;;;4.17;3.77;;;;;;;;;;6196341;28;20278;-63
2023/06/30 11:29:14;;;;;;;4.00;3.70;;;;;;;;;;6191900;28;20220;-62
2023/06/30 11:32:19;;;;;;;4.83;4.20;;;;;;;;;;6180243;28;20219;-62
2023/06/30 11:35:20;;;;;;;4.63;3.70;;;;;;;;;;6199303;28;20280;-63
2023/06/30 11:38:21;;;;;;;3.90;3.60;;;;;;;;;;6180289;28;20192;-63
2023/06/30 11:41:22;;;;;;;4.57;3.53;;;;;;;;;;6194126;28;20274;-64
2023/06/30 11:44:23;;;;;;;3.90;3.50;;;;;;;;;;6189417;28;20191;-63
2023/06/30 11:47:24;;;;;;;4.53;3.63;;;;;;;;;;6183118;28;20208;-64
2023/06/30 11:50:30;;;;;;;4.67;4.27;;;;;;;;;;6179599;28;20193;-63
2023/06/30 11:53:31;;;;;;;4.20;3.80;;;;;;;;;;6189235;28;20209;-64
2023/06/30 11:56:33;;;;;;;4.30;3.87;;;;;;;;;;6180601;28;20183;-64
2023/06/30 11:59:34;;;;;;;4.77;3.80;;;;;;;;;;6191839;28;20192;-64
2023/06/30 12:02:35;;;;;;;5.70;3.90;;;;;;;;;;6183701;28;20187;-64
2023/06/30 12:05:41;;;;;;;5.53;4.00;;;;;;;;;;6180818;28;20202;-64
2023/06/30 12:08:43;;;;;;;4.40;4.00;;;;;;;;;;6193900;28;20264;-64
2023/06/30 12:11:50;;;;;;;3.80;3.50;;;;;;;;;;6192706;28;20272;-62
2023/06/30 12:14:53;;;;;;;4.00;3.70;;;;;;;;;;6182580;28;20266;-61
2023/06/30 12:17:54;;;;;;;3.90;3.60;;;;;;;;;;6208351;28;20187;-61
2023/06/30 12:20:57;;;;;;;3.70;3.40;;;;;;;;;;6166436;28;20208;-62
2023/06/30 12:23:58;;;;;;;4.13;3.73;;;;;;;;;;6185990;28;20188;-62
2023/06/30 12:27:03;;;;;;;3.53;3.20;;;;;;;;;;6188135;28;20263;-62
2023/06/30 12:30:04;;;;;;;3.30;3.07;;;;;;;;;;6176007;28;20240;-62
2023/06/30 12:33:08;;;;;;;4.10;3.40;;;;;;;;;;6175252;28;20216;-62
2023/06/30 12:36:09;;;;;;;3.60;3.30;;;;;;;;;;6185474;28;20199;-62
2023/06/30 12:39:10;;;;;;;4.20;3.80;;;;;;;;;;6189182;28;20216;-62
2023/06/30 12:42:11;;;;;;;4.37;3.60;;;;;;;;;;6172212;28;20214;-62
2023/06/30 12:45:13;;;;;;;3.10;2.87;;;;;;;;;;6182458;28;20205;-62
2023/06/30 12:48:14;;;;;;;2.90;2.70;;;;;;;;;;6178873;28;20202;-62
2023/06/30 12:51:15;;;;;;;4.63;2.83;;;;;;;;;;6194638;28;20194;-62
2023/06/30 12:54:17;;;;;;;3.63;3.33;;;;;;;;;;6182820;28;20183;-63
2023/06/30 12:57:18;;;;;;;3.77;3.47;;;;;;;;;;6171763;28;20200;-63
2023/06/30 13:00:19;;;;;;;3.07;2.80;;;;;;;;;;6182178;28;20274;-62
2023/06/30 13:03:20;;;;;;;4.63;3.43;;;;;;;;;;6181448;28;20203;-63
2023/06/30 13:06:21;;;;;;;2.90;2.70;;;;;;;;;;6197674;28;20333;-63
2023/06/30 13:09:22;;;;;;;3.53;3.23;;;;;;;;;;6177773;28;20250;-63
2023/06/30 13:12:26;;;;;;;3.50;3.20;;;;;;;;;;6175915;28;20215;-63
2023/06/30 13:15:29;;;;;;;3.67;3.37;;;;;;;;;;6175678;28;20259;-64
2023/06/30 13:18:30;;;;;;;3.43;3.20;;;;;;;;;;6194208;28;20195;-66
2023/06/30 13:21:31;;;;;;;4.03;3.10;;;;;;;;;;6182928;28;20191;-64
2023/06/30 13:24:32;;;;;;;4.60;3.37;;;;;;;;;;6195373;28;20231;-68
2023/06/30 13:27:33;;;;;;;3.60;3.23;;;;;;;;;;6185471;28;20203;-66
2023/06/30 13:30:34;;;;;;;3.40;3.20;;;;;;;;;;6187709;28;20222;-67
2023/06/30 13:33:35;;;;;;;3.30;3.07;;;;;;;;;;6183802;28;20310;-68
2023/06/30 13:36:36;;;;;;;3.73;3.43;;;;;;;;;;6189735;28;20301;-64
2023/06/30 13:39:37;;;;;;;3.50;2.93;;;;;;;;;;6190866;28;20196;-66
2023/06/30 13:42:39;;;;;;;3.77;3.47;;;;;;;;;;6184123;28;20195;-63
2023/06/30 13:45:40;;;;;;;3.47;3.17;;;;;;;;;;6193884;28;20239;-62
2023/06/30 13:48:41;;;;;;;3.77;3.47;;;;;;;;;;6171106;28;20246;-62
2023/06/30 13:51:42;;;;;;;2.87;2.57;;;;;;;;;;6189498;28;20219;-62
2023/06/30 13:54:43;;;;;;;5.07;3.40;;;;;;;;;;6200673;28;20330;-63
2023/06/30 13:57:45;;;;;;;3.17;2.87;;;;;;;;;;6196796;28;20213;-63
2023/06/30 14:00:46;;;;;;;4.47;2.90;;;;;;;;;;6186170;28;20195;-63
2023/06/30 14:03:50;;;;;;;5.57;3.43;;;;;;;;;;6181205;28;20264;-63
2023/06/30 14:06:51;;;;;;;4.23;3.10;;;;;;;;;;6184788;28;20200;-63
2023/06/30 14:09:52;;;;;;;3.87;3.07;;;;;;;;;;6185239;28;20247;-63
2023/06/30 14:12:53;;;;;;;2.87;2.67;;;;;;;;;;6190317;28;20226;-62
2023/06/30 14:15:54;;;;;;;3.47;2.87;;;;;;;;;;6187907;28;20307;-62
2023/06/30 14:18:55;;;;;;;4.03;3.03;;;;;;;;;;6198047;28;20298;-63
2023/06/30 14:21:58;;;;;;;3.47;3.07;;;;;;;;;;6175647;28;20290;-62
2023/06/30 14:24:59;;;;;;;3.97;3.60;;;;;;;;;;6179344;28;20204;-63
2023/06/30 14:28:00;;;;;;;5.63;2.90;;;;;;;;;;6187358;28;20215;-62
2023/06/30 14:31:01;;;;;;;3.30;3.00;;;;;;;;;;6185965;28;20227;-63
2023/06/30 14:34:02;;;;;;;3.30;3.10;;;;;;;;;;6182358;28;20226;-61
2023/06/30 14:37:04;;;;;;;3.40;3.10;;;;;;;;;;6190936;28;20188;-62
2023/06/30 14:40:05;;;;;;;5.03;3.33;;;;;;;;;;6198332;28;20196;-62
2023/06/30 14:43:06;;;;;;;3.40;3.00;;;;;;;;;;6189261;28;20199;-63
2023/06/30 14:46:07;;;;;;;3.27;2.93;;;;;;;;;;6199017;28;20198;-62
2023/06/30 14:49:08;;;;;;;4.03;3.13;;;;;;;;;;6175376;28;20192;-62
2023/06/30 14:52:09;;;;;;;3.53;3.23;;;;;;;;;;6187822;28;20215;-62
2023/06/30 14:55:10;;;;;;;3.50;3.20;;;;;;;;;;6187577;28;20215;-62
2023/06/30 14:58:11;;;;;;;3.90;3.40;;;;;;;;;;6172472;28;20200;-61
2023/06/30 15:01:12;;;;;;;4.57;3.17;;;;;;;;;;6181003;28;20196;-63
2023/06/30 15:04:13;;;;;;;3.37;3.07;;;;;;;;;;6186500;28;20190;-63
2023/06/30 15:07:15;;;;;;;5.33;3.07;;;;;;;;;;6185325;28;20226;-62
2023/06/30 15:10:16;;;;;;;3.77;3.47;;;;;;;;;;6177364;28;20193;-61
2023/06/30 15:13:17;;;;;;;3.30;3.00;;;;;;;;;;6194714;28;20306;-61
2023/06/30 15:16:18;;;;;;;4.40;3.60;;;;;;;;;;6176542;28;20236;-63
2023/06/30 15:19:19;;;;;;;3.93;3.23;;;;;;;;;;6179848;28;20207;-62
2023/06/30 15:22:20;;;;;;;2.87;2.60;;;;;;;;;;6181712;28;20215;-62
2023/06/30 15:25:22;;;;;;;3.43;3.20;;;;;;;;;;6187013;28;20223;-61
2023/06/30 15:28:23;;;;;;;2.87;2.67;;;;;;;;;;6173703;28;20184;-63
2023/06/30 15:31:24;;;;;;;3.70;2.60;;;;;;;;;;6171840;28;20191;-62
2023/06/30 15:34:26;;;;;;;3.20;2.90;;;;;;;;;;6189279;28;20283;-64
2023/06/30 15:37:27;;;;;;;3.20;3.00;;;;;;;;;;6184172;28;20191;-63
2023/06/30 15:40:28;;;;;;;4.07;3.13;;;;;;;;;;6187041;28;20195;-64
2023/06/30 15:43:29;;;;;;;3.03;2.80;;;;;;;;;;6194059;28;20199;-63
2023/06/30 15:46:30;;;;;;;4.77;3.10;;;;;;;;;;6186319;28;20198;-64
2023/06/30 15:49:31;;;;;;;3.50;3.20;;;;;;;;;;6186394;28;20192;-64
2023/06/30 15:52:32;;;;;;;3.67;3.27;;;;;;;;;;6175060;28;20212;-66
2023/06/30 15:55:33;;;;;;;3.80;3.20;;;;;;;;;;6189665;28;20194;-66
2023/06/30 15:58:34;;;;;;;3.53;3.23;;;;;;;;;;6189644;28;20215;-67
2023/06/30 16:01:35;;;;;;;3.20;3.00;;;;;;;;;;6180757;28;20192;-66
2023/06/30 16:04:36;;;;;;;4.20;3.10;;;;;;;;;;6179219;28;20191;-66
2023/06/30 16:07:37;;;;;;;4.43;3.73;;;;;;;;;;6181836;28;20226;-66
2023/06/30 16:10:38;;;;;;;5.37;3.23;;;;;;;;;;6174380;28;20260;-66
2023/06/30 16:13:40;;;;;;;4.10;3.63;;;;;;;;;;6175433;28;20224;-66
2023/06/30 16:16:41;;;;;;;3.57;3.10;;;;;;;;;;6180771;28;20178;-66
2023/06/30 16:19:43;;;;;;;3.90;3.50;;;;;;;;;;6181672;28;20193;-65
2023/06/30 16:22:44;;;;;;;3.80;3.50;;;;;;;;;;6194850;28;20196;-65
2023/06/30 16:25:45;;;;;;;3.73;3.40;;;;;;;;;;6181755;28;20193;-66
2023/06/30 16:28:46;;;;;;;4.73;3.20;;;;;;;;;;6176084;28;20195;-66
2023/06/30 16:31:47;;;;;;;3.80;2.93;;;;;;;;;;6178188;28;20223;-66
2023/06/30 16:34:48;;;;;;;3.40;3.10;;;;;;;;;;6188140;28;20199;-66
2023/06/30 16:37:49;;;;;;;4.73;3.40;;;;;;;;;;6193557;28;20204;-66
2023/06/30 16:40:50;;;;;;;3.40;3.10;;;;;;;;;;6188923;28;20190;-65
2023/06/30 16:43:51;;;;;;;4.33;3.00;;;;;;;;;;6196703;28;20199;-65
2023/06/30 16:46:52;;;;;;;3.80;3.50;;;;;;;;;;6182541;28;20195;-66
2023/06/30 16:49:53;;;;;;;3.57;3.27;;;;;;;;;;6194868;28;20191;-65
2023/06/30 16:52:54;;;;;;;4.07;3.70;;;;;;;;;;6188495;28;20216;-65
2023/06/30 16:55:55;;;;;;;3.87;3.33;;;;;;;;;;6182745;28;20188;-65
2023/06/30 16:58:58;;;;;;;4.67;3.57;;;;;;;;;;6178161;28;20196;-66
2023/06/30 17:01:59;;;;;;;4.73;3.53;;;;;;;;;;6187110;28;20217;-67
2023/06/30 17:05:00;;;;;;;5.30;3.60;;;;;;;;;;6178323;28;20196;-66
2023/06/30 17:08:01;;;;;;;4.80;3.30;;;;;;;;;;6192909;28;20283;-68
2023/06/30 17:11:02;;;;;;;4.47;3.43;;;;;;;;;;6181357;28;20223;-65
2023/06/30 17:14:03;;;;;;;5.60;3.37;;;;;;;;;;6166623;28;20267;-66
2023/06/30 17:17:05;;;;;;;4.30;3.60;;;;;;;;;;6203105;28;20186;-67
2023/06/30 17:20:07;;;;;;;4.00;3.60;;;;;;;;;;6170522;28;20184;-65
2023/06/30 17:23:08;;;;;;;5.63;3.77;;;;;;;;;;6193595;28;20184;-65
2023/06/30 17:26:10;;;;;;;5.37;3.67;;;;;;;;;;6191456;28;20266;-66
2023/06/30 17:29:12;;;;;;;3.37;3.07;;;;;;;;;;6185621;28;20247;-65
2023/06/30 17:32:13;;;;;;;7.20;4.00;;;;;;;;;;6181255;28;20226;-64
2023/06/30 17:35:14;;;;;;;5.13;3.50;;;;;;;;;;6190639;28;20182;-65
2023/06/30 17:38:15;;;;;;;3.67;3.30;;;;;;;;;;6195194;28;20191;-66
2023/06/30 17:41:16;;;;;;;3.70;3.40;;;;;;;;;;6183350;28;20194;-66
2023/06/30 17:44:19;;;;;;;3.63;3.33;;;;;;;;;;6178033;28;20215;-65
2023/06/30 17:47:20;;;;;;;4.20;3.50;;;;;;;;;;6194220;28;20184;-66
2023/06/30 17:50:24;;;;;;;3.53;3.23;;;;;;;;;;6175265;28;20243;-66
2023/06/30 17:53:27;;;;;;;5.60;3.70;;;;;;;;;;6186538;28;20200;-63
2023/06/30 17:56:28;;;;;;;3.80;3.40;;;;;;;;;;6198140;28;20191;-63
2023/06/30 17:59:30;;;;;;;3.80;3.50;;;;;;;;;;6189983;28;20192;-68
2023/06/30 18:02:31;;;;;;;3.47;3.17;;;;;;;;;;6181337;28;20187;-67
2023/06/30 18:05:32;;;;;;;3.90;3.60;;;;;;;;;;6200891;28;20202;-64
2023/06/30 18:08:36;;;;;;;4.10;3.53;;;;;;;;;;6184377;28;20187;-64